createdAt,value
2017-11-22T00:01:41.131Z,92.90
2017-11-22T00:04:08.676Z,92.80
2017-11-22T00:06:36.187Z,92.80
2017-11-22T00:09:05.111Z,92.80
2017-11-22T00:11:32.612Z,92.90
2017-11-22T00:14:00.133Z,92.40
2017-11-22T00:16:27.616Z,92.40
2017-11-22T00:18:55.109Z,92.50
2017-11-22T00:21:22.634Z,92.60
2017-11-22T00:23:50.124Z,92.90
2017-11-22T00:26:17.631Z,92.80
2017-11-22T00:28:45.120Z,92.80
2017-11-22T00:31:12.749Z,92.60
2017-11-22T00:33:40.221Z,92.80
2017-11-22T00:36:07.728Z,93.00
2017-11-22T00:38:35.616Z,92.70
2017-11-22T00:41:03.133Z,92.70
2017-11-22T00:43:31.561Z,92.50
2017-11-22T00:45:59.092Z,92.60
2017-11-22T00:48:26.556Z,92.20
2017-11-22T00:50:54.465Z,92.20
2017-11-22T00:53:21.941Z,92.20
2017-11-22T00:55:49.421Z,92.00
2017-11-22T00:58:16.926Z,92.00
2017-11-22T01:00:44.416Z,92.40
2017-11-22T01:03:11.911Z,92.10
2017-11-22T01:05:39.787Z,91.80
2017-11-22T01:08:07.312Z,91.80
2017-11-22T01:10:34.796Z,91.60
2017-11-22T01:13:02.676Z,92.00
2017-11-22T01:15:30.187Z,92.00
2017-11-22T01:17:57.695Z,91.70
2017-11-22T01:20:25.193Z,91.90
2017-11-22T01:22:52.692Z,91.90
2017-11-22T01:25:20.568Z,91.90
2017-11-22T01:27:48.450Z,92.00
2017-11-22T01:30:15.946Z,92.00
2017-11-22T01:32:43.459Z,91.70
2017-11-22T01:35:10.964Z,91.70
2017-11-22T01:37:40.422Z,92.00
2017-11-22T01:40:07.902Z,91.90
2017-11-22T01:42:35.384Z,91.90
2017-11-22T01:45:02.880Z,91.90
2017-11-22T01:47:30.406Z,91.50
2017-11-22T01:49:57.896Z,91.60
2017-11-22T01:52:25.780Z,91.70
2017-11-22T01:54:53.283Z,91.70
2017-11-22T01:57:20.765Z,91.70
2017-11-22T01:59:48.664Z,91.70
2017-11-22T02:02:16.158Z,91.70
2017-11-22T02:04:45.608Z,91.20
2017-11-22T02:07:14.428Z,91.30
2017-11-22T02:09:41.937Z,91.30
2017-11-22T02:12:09.427Z,91.40
2017-11-22T02:14:36.933Z,91.20
2017-11-22T02:17:04.421Z,91.50
2017-11-22T02:19:32.295Z,91.40
2017-11-22T02:21:59.816Z,91.40
2017-11-22T02:24:27.299Z,91.50
2017-11-22T02:26:54.819Z,91.50
2017-11-22T02:29:22.393Z,91.50
2017-11-22T02:31:49.900Z,91.70
2017-11-22T02:34:17.372Z,91.70
2017-11-22T02:36:45.862Z,91.40
2017-11-22T02:39:13.357Z,91.80
2017-11-22T02:41:40.841Z,91.90
2017-11-22T02:44:08.729Z,92.00
2017-11-22T02:46:36.301Z,92.00
2017-11-22T02:49:03.773Z,91.90
2017-11-22T02:51:31.267Z,91.90
2017-11-22T02:53:58.743Z,92.00
2017-11-22T02:56:26.616Z,92.30
2017-11-22T02:58:54.528Z,92.00
2017-11-22T03:01:22.655Z,92.00
2017-11-22T03:03:50.532Z,91.80
2017-11-22T03:06:18.036Z,91.80
2017-11-22T03:08:45.632Z,91.90
2017-11-22T03:11:13.531Z,91.80
2017-11-22T03:13:41.014Z,91.80
2017-11-22T03:16:08.501Z,91.90
2017-11-22T03:18:35.999Z,92.10
2017-11-22T03:21:03.541Z,92.10
2017-11-22T03:23:31.025Z,91.80
2017-11-22T03:25:58.532Z,91.80
2017-11-22T03:28:26.013Z,91.70
2017-11-22T03:30:53.969Z,91.80
2017-11-22T03:33:21.843Z,91.80
2017-11-22T03:35:49.716Z,92.00
2017-11-22T03:38:17.215Z,92.00
2017-11-22T03:40:44.704Z,91.90
2017-11-22T03:43:12.621Z,92.00
2017-11-22T03:45:40.102Z,92.00
2017-11-22T03:48:13.294Z,92.20
2017-11-22T03:50:46.742Z,91.90
2017-11-22T03:53:20.325Z,91.90
2017-11-22T03:55:47.828Z,91.90
2017-11-22T03:58:17.203Z,91.70
2017-11-22T04:00:45.163Z,91.90
2017-11-22T04:03:13.064Z,91.80
2017-11-22T04:05:46.159Z,91.80
2017-11-22T04:08:18.483Z,91.70
2017-11-22T04:10:47.940Z,92.20
2017-11-22T04:13:16.337Z,91.90
2017-11-22T04:15:43.848Z,91.90
2017-11-22T04:18:11.352Z,91.90
2017-11-22T04:20:44.696Z,92.40
2017-11-22T04:23:12.691Z,92.00
2017-11-22T04:25:40.165Z,92.00
2017-11-22T04:28:07.661Z,92.10
2017-11-22T04:30:35.153Z,92.00
2017-11-22T04:33:02.660Z,92.30
2017-11-22T04:35:30.139Z,92.30
2017-11-22T04:37:58.027Z,91.90
2017-11-22T04:40:26.419Z,91.90
2017-11-22T04:42:53.936Z,92.00
2017-11-22T04:45:21.538Z,91.70
2017-11-22T04:47:49.017Z,92.10
2017-11-22T04:50:16.500Z,91.70
2017-11-22T04:52:43.991Z,91.90
2017-11-22T04:55:11.882Z,92.20
2017-11-22T04:57:41.309Z,92.20
2017-11-22T05:00:08.784Z,91.70
2017-11-22T05:02:38.219Z,91.60
2017-11-22T05:05:06.105Z,91.80
2017-11-22T05:07:33.605Z,91.80
2017-11-22T05:10:01.133Z,91.90
2017-11-22T05:12:28.652Z,91.60
2017-11-22T05:14:56.161Z,91.60
2017-11-22T05:17:23.644Z,91.70
2017-11-22T05:19:51.886Z,92.20
2017-11-22T05:22:20.296Z,92.10
2017-11-22T05:24:47.810Z,92.10
2017-11-22T05:27:15.305Z,92.40
2017-11-22T05:29:42.829Z,92.40
2017-11-22T05:32:10.327Z,92.60
2017-11-22T05:34:37.804Z,92.20
2017-11-22T05:37:05.714Z,92.40
2017-11-22T05:39:33.212Z,92.40
2017-11-22T05:42:00.724Z,92.20
2017-11-22T05:44:29.172Z,92.10
2017-11-22T05:46:56.696Z,92.40
2017-11-22T05:49:24.188Z,92.20
2017-11-22T05:51:51.694Z,92.00
2017-11-22T05:54:19.208Z,92.00
2017-11-22T05:56:46.697Z,92.20
2017-11-22T05:59:14.200Z,91.90
2017-11-22T06:01:41.730Z,92.10
2017-11-22T06:04:09.259Z,92.00
2017-11-22T06:06:37.136Z,92.00
2017-11-22T06:09:06.576Z,92.00
2017-11-22T06:11:34.062Z,91.90
2017-11-22T06:14:01.540Z,92.10
2017-11-22T06:16:29.444Z,91.20
2017-11-22T06:18:56.928Z,91.10
2017-11-22T06:21:24.450Z,91.50
2017-11-22T06:23:52.881Z,91.30
2017-11-22T06:26:20.385Z,91.40
2017-11-22T06:28:47.863Z,91.50
2017-11-22T06:31:15.372Z,91.50
2017-11-22T06:33:43.272Z,91.20
2017-11-22T06:36:10.756Z,91.20
2017-11-22T06:38:38.247Z,91.40
2017-11-22T06:41:06.144Z,91.30
2017-11-22T06:43:34.598Z,91.30
2017-11-22T06:46:02.497Z,91.60
2017-11-22T06:48:32.016Z,91.60
2017-11-22T06:50:59.505Z,91.40
2017-11-22T06:53:27.017Z,91.40
2017-11-22T06:55:54.509Z,91.30
2017-11-22T06:58:22.889Z,91.70
2017-11-22T07:00:50.425Z,91.40
2017-11-22T07:03:23.539Z,91.40
2017-11-22T07:05:51.029Z,91.50
2017-11-22T07:08:18.946Z,91.50
2017-11-22T07:10:46.461Z,91.40
2017-11-22T07:13:15.385Z,91.10
2017-11-22T07:15:42.891Z,91.00
2017-11-22T07:18:10.797Z,91.20
2017-11-22T07:20:38.324Z,91.20
2017-11-22T07:23:05.817Z,91.20
2017-11-22T07:25:33.411Z,91.00
2017-11-22T07:28:00.900Z,91.00
2017-11-22T07:30:28.403Z,90.60
2017-11-22T07:32:55.896Z,90.90
2017-11-22T07:35:29.096Z,90.80
2017-11-22T07:38:01.424Z,90.90
2017-11-22T07:40:29.720Z,91.20
2017-11-22T07:42:57.203Z,90.80
2017-11-22T07:45:24.715Z,90.40
2017-11-22T07:47:57.936Z,90.70
2017-11-22T07:50:25.456Z,90.60
2017-11-22T07:52:52.957Z,90.10
2017-11-22T07:55:20.444Z,90.30
2017-11-22T07:57:50.312Z,90.40
2017-11-22T08:00:18.726Z,90.40
2017-11-22T08:02:52.449Z,89.80
2017-11-22T08:05:20.316Z,90.30
2017-11-22T08:07:48.237Z,89.90
2017-11-22T08:10:16.136Z,89.90
2017-11-22T08:12:43.658Z,89.90
2017-11-22T08:15:11.154Z,90.40
2017-11-22T08:17:38.647Z,90.30
2017-11-22T08:20:06.183Z,90.30
2017-11-22T08:22:34.105Z,90.30
2017-11-22T08:25:08.112Z,90.30
2017-11-22T08:27:35.616Z,90.20
2017-11-22T08:30:03.491Z,90.30
2017-11-22T08:32:32.331Z,90.10
2017-11-22T08:34:59.831Z,90.10
2017-11-22T08:37:27.726Z,90.00
2017-11-22T08:39:55.238Z,90.00
2017-11-22T08:42:28.536Z,90.40
2017-11-22T08:44:56.022Z,90.40
2017-11-22T08:47:23.528Z,90.50
2017-11-22T08:49:51.025Z,90.50
2017-11-22T08:52:18.916Z,90.30
2017-11-22T08:54:52.092Z,90.30
2017-11-22T08:57:25.605Z,90.30
2017-11-22T08:59:58.901Z,90.30
2017-11-22T09:02:26.394Z,90.10
2017-11-22T09:04:53.975Z,90.10
2017-11-22T09:07:25.396Z,89.90
2017-11-22T09:09:52.894Z,90.00
2017-11-22T09:12:26.111Z,89.60
2017-11-22T09:14:54.536Z,89.70
2017-11-22T09:17:22.854Z,89.80
2017-11-22T09:19:50.749Z,89.40
2017-11-22T09:22:18.247Z,89.40
2017-11-22T09:24:52.295Z,89.70
2017-11-22T09:27:25.792Z,90.10
2017-11-22T09:29:56.564Z,90.20
2017-11-22T09:32:30.848Z,90.20
2017-11-22T09:35:04.502Z,90.20
2017-11-22T09:37:31.995Z,90.20
2017-11-22T09:39:59.916Z,90.20
2017-11-22T09:42:30.238Z,90.20
2017-11-22T09:44:57.744Z,89.90
2017-11-22T09:47:25.655Z,90.50
2017-11-22T09:49:53.149Z,90.50
2017-11-22T09:52:20.632Z,90.30
2017-11-22T09:54:48.551Z,90.30
2017-11-22T09:57:16.042Z,90.30
2017-11-22T09:59:43.547Z,89.80
2017-11-22T10:02:13.680Z,89.90
2017-11-22T10:04:41.187Z,90.00
2017-11-22T10:07:08.696Z,89.40
2017-11-22T10:09:36.195Z,89.30
2017-11-22T10:12:03.681Z,89.50
2017-11-22T10:14:31.562Z,89.20
2017-11-22T10:17:04.661Z,89.30
2017-11-22T10:19:37.891Z,89.10
2017-11-22T10:22:06.341Z,89.20
2017-11-22T10:24:33.836Z,88.90
2017-11-22T10:27:06.980Z,89.30
2017-11-22T10:29:40.078Z,88.80
2017-11-22T10:32:07.583Z,88.90
2017-11-22T10:34:35.077Z,88.80
2017-11-22T10:37:02.584Z,88.90
2017-11-22T10:39:31.090Z,89.00
2017-11-22T10:41:58.635Z,89.20
2017-11-22T10:44:26.177Z,89.10
2017-11-22T10:46:53.703Z,89.20
2017-11-22T10:49:22.191Z,89.00
2017-11-22T10:51:49.699Z,88.40
2017-11-22T10:54:17.207Z,88.90
2017-11-22T10:56:44.721Z,89.10
2017-11-22T10:59:13.558Z,88.70
2017-11-22T11:01:43.007Z,88.70
2017-11-22T11:04:10.580Z,88.90
2017-11-22T11:06:38.492Z,88.90
2017-11-22T11:09:07.919Z,88.90
2017-11-22T11:11:35.408Z,89.00
2017-11-22T11:14:03.308Z,88.60
2017-11-22T11:16:31.924Z,88.60
2017-11-22T11:18:59.458Z,88.20
2017-11-22T11:21:26.965Z,88.30
2017-11-22T11:23:54.866Z,88.20
2017-11-22T11:26:22.405Z,88.20
2017-11-22T11:28:50.317Z,88.50
2017-11-22T11:31:17.838Z,88.50
2017-11-22T11:33:45.319Z,88.20
2017-11-22T11:36:33.492Z,87.80
2017-11-22T11:39:01.842Z,87.80
2017-11-22T11:41:29.355Z,87.80
2017-11-22T11:43:57.252Z,87.10
2017-11-22T11:46:24.794Z,87.10
2017-11-22T11:48:52.684Z,87.40
2017-11-22T11:51:20.220Z,87.40
2017-11-22T11:53:48.120Z,86.30
2017-11-22T11:56:15.612Z,86.30
2017-11-22T11:58:43.122Z,86.60
2017-11-22T12:01:10.623Z,86.40
2017-11-22T12:03:38.127Z,85.80
2017-11-22T12:06:06.082Z,84.40
2017-11-22T12:08:33.983Z,84.30
2017-11-22T12:11:01.470Z,84.20
2017-11-22T12:13:29.730Z,84.50
2017-11-22T12:15:57.240Z,84.10
2017-11-22T12:18:25.136Z,84.30
2017-11-22T12:20:53.587Z,84.30
2017-11-22T12:23:24.424Z,83.80
2017-11-22T12:25:52.345Z,84.30
2017-11-22T12:28:21.809Z,84.30
2017-11-22T12:30:50.633Z,83.50
2017-11-22T12:33:18.133Z,83.50
2017-11-22T12:35:45.621Z,83.50
2017-11-22T12:38:14.082Z,83.70
2017-11-22T12:40:41.964Z,83.50
2017-11-22T12:43:09.871Z,83.30
2017-11-22T12:45:37.392Z,83.30
2017-11-22T12:48:04.940Z,83.80
2017-11-22T12:50:32.866Z,83.10
2017-11-22T12:53:00.392Z,83.10
2017-11-22T12:55:28.839Z,82.80
2017-11-22T12:58:00.659Z,83.30
2017-11-22T13:00:28.131Z,83.30
2017-11-22T13:02:55.672Z,82.80
2017-11-22T13:05:24.105Z,83.20
2017-11-22T13:07:52.003Z,83.10
2017-11-22T13:10:19.600Z,83.10
2017-11-22T13:12:47.112Z,83.10
2017-11-22T13:15:15.636Z,82.80
2017-11-22T13:17:43.141Z,83.10
2017-11-22T13:20:11.044Z,82.90
2017-11-22T13:22:38.544Z,82.90
2017-11-22T13:25:06.052Z,82.90
2017-11-22T13:27:34.517Z,82.40
2017-11-22T13:30:02.049Z,82.90
2017-11-22T13:32:35.377Z,82.60
2017-11-22T13:35:02.907Z,82.90
2017-11-22T13:37:30.804Z,82.50
2017-11-22T13:39:58.283Z,82.50
2017-11-22T13:42:25.793Z,82.90
2017-11-22T13:44:53.432Z,83.00
2017-11-22T13:47:21.324Z,82.50
2017-11-22T13:49:49.237Z,82.60
2017-11-22T13:52:16.727Z,82.60
2017-11-22T13:54:44.245Z,82.80
2017-11-22T13:57:11.806Z,82.50
2017-11-22T13:59:39.312Z,82.70
2017-11-22T14:02:07.225Z,83.10
2017-11-22T14:04:34.721Z,83.10
2017-11-22T14:07:02.228Z,83.20
2017-11-22T14:09:29.803Z,83.60
2017-11-22T14:11:57.288Z,83.90
2017-11-22T14:14:24.798Z,83.80
2017-11-22T14:16:52.290Z,84.20
2017-11-22T14:19:19.788Z,83.80
2017-11-22T14:21:47.697Z,83.50
2017-11-22T14:24:15.217Z,83.50
2017-11-22T14:26:44.558Z,83.80
2017-11-22T14:29:12.079Z,83.80
2017-11-22T14:31:39.608Z,83.60
2017-11-22T14:34:07.104Z,83.30
2017-11-22T14:36:34.644Z,83.60
2017-11-22T14:39:03.152Z,83.70
2017-11-22T14:41:30.670Z,83.80
2017-11-22T14:43:58.175Z,83.70
2017-11-22T14:46:25.712Z,83.80
2017-11-22T14:48:53.604Z,84.10
2017-11-22T14:51:21.115Z,84.10
2017-11-22T14:53:49.233Z,84.50
2017-11-22T14:56:16.742Z,84.30
2017-11-22T14:58:44.425Z,84.40
2017-11-22T15:01:12.316Z,84.30
2017-11-22T15:03:39.908Z,84.30
2017-11-22T15:06:07.443Z,84.40
2017-11-22T15:08:34.937Z,84.40
2017-11-22T15:11:02.448Z,84.70
2017-11-22T15:13:29.941Z,84.80
2017-11-22T15:15:59.400Z,85.30
2017-11-22T15:18:28.219Z,86.30
2017-11-22T15:20:55.723Z,86.30
2017-11-22T15:23:23.286Z,87.00
2017-11-22T15:25:52.719Z,87.70
2017-11-22T15:28:20.204Z,87.80
2017-11-22T15:30:47.692Z,88.10
2017-11-22T15:33:15.215Z,88.00
2017-11-22T15:35:42.702Z,88.20
2017-11-22T15:38:10.205Z,88.40
2017-11-22T15:40:37.691Z,89.00
2017-11-22T15:43:05.237Z,89.30
2017-11-22T15:45:32.740Z,89.60
2017-11-22T15:48:00.293Z,89.80
2017-11-22T15:50:27.782Z,89.90
2017-11-22T15:52:55.346Z,90.30
2017-11-22T15:55:23.225Z,90.30
2017-11-22T15:57:51.097Z,90.50
2017-11-22T16:00:18.604Z,90.50
2017-11-22T16:02:46.086Z,90.70
2017-11-22T16:05:13.979Z,91.00
2017-11-22T16:07:41.456Z,91.00
2017-11-22T16:10:08.953Z,91.20
2017-11-22T16:12:36.524Z,91.00
2017-11-22T16:15:04.028Z,91.30
2017-11-22T16:17:31.551Z,91.40
2017-11-22T16:19:59.450Z,91.90
2017-11-22T16:22:26.956Z,91.90
2017-11-22T16:24:55.047Z,92.00
2017-11-22T16:27:22.950Z,92.30
2017-11-22T16:29:52.411Z,92.30
2017-11-22T16:32:20.289Z,92.60
2017-11-22T16:34:48.200Z,92.40
2017-11-22T16:37:15.684Z,92.40
2017-11-22T16:39:45.180Z,92.40
2017-11-22T16:42:12.667Z,92.80
2017-11-22T16:44:40.176Z,92.70
2017-11-22T16:47:07.680Z,92.50
2017-11-22T16:49:35.164Z,92.80
2017-11-22T16:52:02.659Z,93.00
2017-11-22T16:54:30.138Z,93.40
2017-11-22T16:56:57.637Z,93.50
2017-11-22T16:59:25.557Z,93.60
2017-11-22T17:01:54.862Z,93.70
2017-11-22T17:04:22.363Z,93.80
2017-11-22T17:06:52.660Z,94.20
2017-11-22T17:09:20.141Z,94.10
2017-11-22T17:11:48.040Z,94.00
2017-11-22T17:14:15.539Z,93.90
2017-11-22T17:16:43.077Z,94.10
2017-11-22T17:19:10.595Z,94.10
2017-11-22T17:21:38.101Z,94.30
2017-11-22T17:24:05.580Z,94.10
2017-11-22T17:26:33.076Z,94.00
2017-11-22T17:29:00.552Z,94.40
2017-11-22T17:31:29.976Z,94.40
2017-11-22T17:33:57.464Z,94.70
2017-11-22T17:36:25.391Z,95.20
2017-11-22T17:38:52.876Z,95.20
2017-11-22T17:41:20.375Z,95.20
2017-11-22T17:43:47.849Z,95.30
2017-11-22T17:46:15.354Z,95.40
2017-11-22T17:48:42.828Z,95.40
2017-11-22T17:51:10.729Z,95.20
2017-11-22T17:53:38.208Z,95.20
2017-11-22T17:56:06.623Z,95.00
2017-11-22T17:58:34.128Z,95.50
2017-11-22T18:01:01.639Z,95.50
2017-11-22T18:03:29.542Z,95.80
2017-11-22T18:05:57.076Z,95.80
2017-11-22T18:08:24.992Z,95.60
2017-11-22T18:10:52.492Z,95.60
2017-11-22T18:13:20.014Z,95.80
2017-11-22T18:15:47.553Z,95.80
2017-11-22T18:18:15.044Z,95.60
2017-11-22T18:20:43.528Z,95.60
2017-11-22T18:23:11.019Z,95.80
2017-11-22T18:25:38.900Z,95.70
2017-11-22T18:28:06.425Z,95.70
2017-11-22T18:30:34.049Z,95.60
2017-11-22T18:33:01.609Z,95.60
2017-11-22T18:35:29.114Z,95.90
2017-11-22T18:37:58.967Z,96.30
2017-11-22T18:40:26.488Z,96.30
2017-11-22T18:42:54.405Z,96.20
2017-11-22T18:45:21.944Z,96.20
2017-11-22T18:47:49.485Z,96.30
2017-11-22T18:50:17.374Z,96.30
2017-11-22T18:52:44.873Z,96.30
2017-11-22T18:55:12.382Z,96.50
2017-11-22T18:57:39.869Z,96.20
2017-11-22T19:00:07.392Z,96.00
2017-11-22T19:02:34.875Z,96.10
2017-11-22T19:05:03.320Z,96.20
2017-11-22T19:07:31.207Z,96.30
2017-11-22T19:09:58.688Z,96.30
2017-11-22T19:12:26.196Z,96.20
2017-11-22T19:14:54.068Z,96.40
2017-11-22T19:17:21.966Z,96.40
2017-11-22T19:19:49.451Z,96.40
2017-11-22T19:22:16.941Z,96.50
2017-11-22T19:24:44.815Z,96.90
2017-11-22T19:27:12.698Z,97.10
2017-11-22T19:29:40.200Z,97.10
2017-11-22T19:32:07.676Z,97.20
2017-11-22T19:34:35.175Z,97.40
2017-11-22T19:37:03.611Z,97.50
2017-11-22T19:39:31.111Z,97.60
2017-11-22T19:41:58.608Z,97.50
2017-11-22T19:44:26.134Z,97.30
2017-11-22T19:46:53.631Z,97.20
2017-11-22T19:49:21.127Z,97.00
2017-11-22T19:51:49.016Z,97.40
2017-11-22T19:54:16.488Z,97.40
2017-11-22T19:56:43.989Z,97.50
2017-11-22T19:59:11.485Z,97.40
2017-11-22T20:01:38.965Z,97.10
2017-11-22T20:04:06.465Z,97.00
2017-11-22T20:06:33.949Z,96.90
2017-11-22T20:09:02.637Z,97.20
2017-11-22T20:11:30.533Z,97.20
2017-11-22T20:13:58.047Z,97.20
2017-11-22T20:16:25.942Z,97.20
2017-11-22T20:18:55.393Z,97.20
2017-11-22T20:21:22.878Z,97.40
2017-11-22T20:23:50.765Z,97.70
2017-11-22T20:26:18.240Z,97.70
2017-11-22T20:28:45.723Z,97.70
2017-11-22T20:31:13.220Z,97.60
2017-11-22T20:33:41.115Z,97.40
2017-11-22T20:36:09.559Z,97.40
2017-11-22T20:38:37.112Z,97.30
2017-11-22T20:41:04.600Z,96.80
2017-11-22T20:43:32.464Z,97.00
2017-11-22T20:46:02.310Z,97.30
2017-11-22T20:48:29.796Z,97.30
2017-11-22T20:50:57.312Z,97.80
2017-11-22T20:53:24.910Z,98.00
2017-11-22T20:55:52.388Z,98.20
2017-11-22T20:58:19.893Z,98.40
2017-11-22T21:00:47.376Z,98.40
2017-11-22T21:03:14.884Z,98.30
2017-11-22T21:05:42.779Z,98.00
2017-11-22T21:08:10.248Z,98.10
2017-11-22T21:10:37.743Z,98.10
2017-11-22T21:13:05.228Z,98.10
2017-11-22T21:15:32.719Z,98.20
2017-11-22T21:18:00.196Z,98.10
2017-11-22T21:20:27.692Z,98.10
2017-11-22T21:22:55.581Z,98.00
2017-11-22T21:25:23.078Z,98.00
2017-11-22T21:27:50.574Z,97.80
2017-11-22T21:30:18.452Z,97.60
2017-11-22T21:32:47.884Z,97.60
2017-11-22T21:35:15.374Z,97.20
2017-11-22T21:37:44.825Z,97.10
2017-11-22T21:40:12.336Z,97.00
2017-11-22T21:42:39.858Z,97.10
2017-11-22T21:45:07.378Z,97.10
2017-11-22T21:47:36.004Z,97.50
2017-11-22T21:50:03.497Z,97.50
2017-11-22T21:52:30.972Z,97.70
2017-11-22T21:54:59.757Z,97.90
2017-11-22T21:57:27.648Z,98.00
2017-11-22T21:59:55.162Z,98.00
2017-11-22T22:02:23.589Z,98.00
2017-11-22T22:04:51.069Z,98.10
2017-11-22T22:07:20.636Z,98.10
2017-11-22T22:09:48.522Z,97.90
2017-11-22T22:12:16.404Z,97.70
2017-11-22T22:14:43.904Z,97.70
2017-11-22T22:17:11.388Z,97.60
2017-11-22T22:19:40.192Z,97.60
2017-11-22T22:22:30.133Z,97.60
2017-11-22T22:54:50.511Z,98.50
2017-11-22T22:57:18.079Z,98.50
2017-11-22T22:59:45.631Z,98.50
2017-11-22T23:02:14.116Z,98.50
2017-11-22T23:04:41.608Z,98.50
2017-11-22T23:07:10.432Z,98.20
2017-11-22T23:09:37.917Z,98.30
2017-11-22T23:12:05.444Z,98.20
2017-11-22T23:14:34.229Z,98.30
2017-11-22T23:17:01.792Z,98.40
2017-11-22T23:19:31.545Z,98.20
2017-11-22T23:22:01.544Z,98.30
2017-11-22T23:24:35.516Z,98.00
2017-11-22T23:27:11.900Z,98.00
2017-11-22T23:29:43.065Z,98.10
2017-11-22T23:32:14.519Z,98.10
2017-11-22T23:34:43.868Z,98.20
2017-11-22T23:37:16.907Z,98.50
2017-11-22T23:39:57.855Z,98.50
2017-11-22T23:42:28.625Z,98.50
2017-11-22T23:47:36.077Z,98.60
2017-11-22T23:50:15.952Z,98.60
2017-11-22T23:52:48.115Z,98.50
2017-11-22T23:55:17.244Z,98.50
2017-11-22T23:57:44.859Z,98.40
